sensor_id;sensor_type;location;lat;lon;timestamp;temperature;humidity
1103;DHT22;538;42.654;23.376;2023-02-21T00:02:42;5.70;19.20
1103;DHT22;538;42.654;23.376;2023-02-21T00:05:26;5.60;19.20
1103;DHT22;538;42.654;23.376;2023-02-21T00:08:11;5.70;19.20
1103;DHT22;538;42.654;23.376;2023-02-21T00:10:55;5.70;19.20
1103;DHT22;538;42.654;23.376;2023-02-21T00:13:40;5.60;19.20
1103;DHT22;538;42.654;23.376;2023-02-21T00:16:25;5.70;19.50
1103;DHT22;538;42.654;23.376;2023-02-21T00:19:09;5.50;19.50
1103;DHT22;538;42.654;23.376;2023-02-21T00:21:53;5.50;19.60
1103;DHT22;538;42.654;23.376;2023-02-21T00:24:38;5.60;19.30
1103;DHT22;538;42.654;23.376;2023-02-21T00:27:23;5.50;19.60
1103;DHT22;538;42.654;23.376;2023-02-21T00:30:08;5.50;19.70
1103;DHT22;538;42.654;23.376;2023-02-21T00:32:55;5.50;19.50
1103;DHT22;538;42.654;23.376;2023-02-21T00:35:39;5.70;19.50
1103;DHT22;538;42.654;23.376;2023-02-21T00:38:24;5.50;19.50
1103;DHT22;538;42.654;23.376;2023-02-21T00:41:09;5.50;19.70
1103;DHT22;538;42.654;23.376;2023-02-21T00:43:53;5.50;19.60
1103;DHT22;538;42.654;23.376;2023-02-21T00:46:37;5.60;19.50
1103;DHT22;538;42.654;23.376;2023-02-21T00:49:23;5.60;19.00
1103;DHT22;538;42.654;23.376;2023-02-21T00:52:08;5.50;18.70
1103;DHT22;538;42.654;23.376;2023-02-21T00:54:53;5.70;18.80
1103;DHT22;538;42.654;23.376;2023-02-21T00:57:37;5.60;19.20
1103;DHT22;538;42.654;23.376;2023-02-21T01:00:32;5.60;19.20
1103;DHT22;538;42.654;23.376;2023-02-21T01:03:16;5.70;18.80
1103;DHT22;538;42.654;23.376;2023-02-21T01:06:02;5.70;18.80
1103;DHT22;538;42.654;23.376;2023-02-21T01:08:46;5.80;18.70
1103;DHT22;538;42.654;23.376;2023-02-21T01:11:32;5.70;19.10
1103;DHT22;538;42.654;23.376;2023-02-21T01:14:16;5.60;18.70
1103;DHT22;538;42.654;23.376;2023-02-21T01:17:01;5.70;18.70
1103;DHT22;538;42.654;23.376;2023-02-21T01:19:45;5.70;19.10
1103;DHT22;538;42.654;23.376;2023-02-21T01:22:31;5.90;18.50
1103;DHT22;538;42.654;23.376;2023-02-21T01:25:16;5.80;18.50
1103;DHT22;538;42.654;23.376;2023-02-21T01:28:00;5.80;18.40
1103;DHT22;538;42.654;23.376;2023-02-21T01:30:45;5.80;18.20
1103;DHT22;538;42.654;23.376;2023-02-21T01:33:34;5.80;18.60
1103;DHT22;538;42.654;23.376;2023-02-21T01:36:19;5.80;18.50
1103;DHT22;538;42.654;23.376;2023-02-21T01:39:04;5.80;18.00
1103;DHT22;538;42.654;23.376;2023-02-21T01:41:49;5.80;18.40
1103;DHT22;538;42.654;23.376;2023-02-21T01:44:35;5.80;17.90
1103;DHT22;538;42.654;23.376;2023-02-21T01:47:20;5.80;17.90
1103;DHT22;538;42.654;23.376;2023-02-21T01:50:09;5.70;18.20
1103;DHT22;538;42.654;23.376;2023-02-21T01:52:55;5.80;18.00
1103;DHT22;538;42.654;23.376;2023-02-21T01:55:41;5.70;18.40
1103;DHT22;538;42.654;23.376;2023-02-21T01:58:29;5.70;18.40
1103;DHT22;538;42.654;23.376;2023-02-21T02:01:22;5.70;18.30
1103;DHT22;538;42.654;23.376;2023-02-21T02:04:08;5.80;18.20
1103;DHT22;538;42.654;23.376;2023-02-21T02:06:53;5.80;18.20
1103;DHT22;538;42.654;23.376;2023-02-21T02:09:37;5.80;18.20
1103;DHT22;538;42.654;23.376;2023-02-21T02:15:32;5.80;18.20
1103;DHT22;538;42.654;23.376;2023-02-21T02:18:26;5.80;18.10
1103;DHT22;538;42.654;23.376;2023-02-21T02:21:28;5.90;18.10
1103;DHT22;538;42.654;23.376;2023-02-21T02:27:22;5.80;18.10
1103;DHT22;538;42.654;23.376;2023-02-21T02:35:55;5.80;18.30
1103;DHT22;538;42.654;23.376;2023-02-21T02:38:29;5.80;18.30
1103;DHT22;538;42.654;23.376;2023-02-21T02:41:03;5.80;18.30
1103;DHT22;538;42.654;23.376;2023-02-21T02:43:39;6.00;17.80
1103;DHT22;538;42.654;23.376;2023-02-21T02:46:12;6.00;17.60
1103;DHT22;538;42.654;23.376;2023-02-21T02:48:43;6.00;18.00
1103;DHT22;538;42.654;23.376;2023-02-21T02:51:13;6.00;17.30
1103;DHT22;538;42.654;23.376;2023-02-21T02:53:41;6.00;17.70
1103;DHT22;538;42.654;23.376;2023-02-21T02:56:10;6.10;17.70
1103;DHT22;538;42.654;23.376;2023-02-21T02:58:41;6.10;18.10
1103;DHT22;538;42.654;23.376;2023-02-21T03:01:23;6.10;17.00
1103;DHT22;538;42.654;23.376;2023-02-21T03:04:15;6.10;17.40
1103;DHT22;538;42.654;23.376;2023-02-21T03:06:53;6.10;17.30
1103;DHT22;538;42.654;23.376;2023-02-21T03:09:29;6.10;16.80
1103;DHT22;538;42.654;23.376;2023-02-21T03:12:08;6.20;17.30
1103;DHT22;538;42.654;23.376;2023-02-21T03:14:43;6.10;17.30
1103;DHT22;538;42.654;23.376;2023-02-21T03:17:13;6.00;17.50
1103;DHT22;538;42.654;23.376;2023-02-21T03:19:46;5.90;17.70
1103;DHT22;538;42.654;23.376;2023-02-21T03:22:17;5.90;17.80
1103;DHT22;538;42.654;23.376;2023-02-21T03:24:47;5.90;17.60
1103;DHT22;538;42.654;23.376;2023-02-21T03:27:16;5.90;17.70
1103;DHT22;538;42.654;23.376;2023-02-21T03:29:45;5.80;18.00
1103;DHT22;538;42.654;23.376;2023-02-21T03:32:17;5.80;18.20
1103;DHT22;538;42.654;23.376;2023-02-21T03:34:45;5.70;18.40
1103;DHT22;538;42.654;23.376;2023-02-21T03:37:20;5.70;18.20
1103;DHT22;538;42.654;23.376;2023-02-21T03:39:47;5.70;18.60
1103;DHT22;538;42.654;23.376;2023-02-21T03:42:14;5.80;18.10
1103;DHT22;538;42.654;23.376;2023-02-21T03:44:41;5.70;18.40
1103;DHT22;538;42.654;23.376;2023-02-21T03:47:08;5.70;18.20
1103;DHT22;538;42.654;23.376;2023-02-21T03:49:35;5.80;18.20
1103;DHT22;538;42.654;23.376;2023-02-21T03:52:02;5.70;18.00
1103;DHT22;538;42.654;23.376;2023-02-21T03:54:31;5.80;18.10
1103;DHT22;538;42.654;23.376;2023-02-21T03:56:58;5.80;18.20
1103;DHT22;538;42.654;23.376;2023-02-21T03:59:25;5.70;18.20
1103;DHT22;538;42.654;23.376;2023-02-21T04:01:52;5.80;18.20
1103;DHT22;538;42.654;23.376;2023-02-21T04:04:19;5.60;17.90
1103;DHT22;538;42.654;23.376;2023-02-21T04:06:46;5.70;18.50
1103;DHT22;538;42.654;23.376;2023-02-21T04:09:13;5.70;18.30
1103;DHT22;538;42.654;23.376;2023-02-21T04:11:43;5.60;18.60
1103;DHT22;538;42.654;23.376;2023-02-21T04:14:11;5.60;18.60
1103;DHT22;538;42.654;23.376;2023-02-21T04:16:38;5.60;18.30
1103;DHT22;538;42.654;23.376;2023-02-21T04:19:06;5.60;18.40
1103;DHT22;538;42.654;23.376;2023-02-21T04:21:33;5.60;18.70
1103;DHT22;538;42.654;23.376;2023-02-21T04:24:00;5.70;18.20
1103;DHT22;538;42.654;23.376;2023-02-21T04:26:27;5.60;18.60
1103;DHT22;538;42.654;23.376;2023-02-21T04:28:56;5.50;17.90
1103;DHT22;538;42.654;23.376;2023-02-21T04:31:23;5.60;18.00
1103;DHT22;538;42.654;23.376;2023-02-21T04:33:50;5.60;17.90
1103;DHT22;538;42.654;23.376;2023-02-21T04:36:17;5.70;18.30
1103;DHT22;538;42.654;23.376;2023-02-21T04:38:44;5.60;18.30
1103;DHT22;538;42.654;23.376;2023-02-21T04:41:11;5.70;18.10
1103;DHT22;538;42.654;23.376;2023-02-21T04:43:40;5.50;18.40
1103;DHT22;538;42.654;23.376;2023-02-21T04:46:09;5.60;18.50
1103;DHT22;538;42.654;23.376;2023-02-21T04:48:40;5.50;18.40
1103;DHT22;538;42.654;23.376;2023-02-21T04:51:07;5.50;18.20
1103;DHT22;538;42.654;23.376;2023-02-21T04:53:34;5.60;18.70
1103;DHT22;538;42.654;23.376;2023-02-21T04:56:01;5.70;19.10
1103;DHT22;538;42.654;23.376;2023-02-21T04:58:28;5.40;19.00
1103;DHT22;538;42.654;23.376;2023-02-21T05:00:55;5.30;19.00
1103;DHT22;538;42.654;23.376;2023-02-21T05:03:24;5.40;19.10
1103;DHT22;538;42.654;23.376;2023-02-21T05:05:51;5.30;19.30
1103;DHT22;538;42.654;23.376;2023-02-21T05:08:18;5.20;19.20
1103;DHT22;538;42.654;23.376;2023-02-21T05:10:45;5.20;19.60
1103;DHT22;538;42.654;23.376;2023-02-21T05:13:12;5.30;19.70
1103;DHT22;538;42.654;23.376;2023-02-21T05:15:39;5.20;20.00
1103;DHT22;538;42.654;23.376;2023-02-21T05:18:06;5.30;19.60
1103;DHT22;538;42.654;23.376;2023-02-21T05:20:35;5.20;20.00
1103;DHT22;538;42.654;23.376;2023-02-21T05:23:02;5.30;20.10
1103;DHT22;538;42.654;23.376;2023-02-21T05:25:29;5.30;20.10
1103;DHT22;538;42.654;23.376;2023-02-21T05:27:56;5.40;20.00
1103;DHT22;538;42.654;23.376;2023-02-21T05:30:23;5.30;19.90
1103;DHT22;538;42.654;23.376;2023-02-21T05:32:50;5.30;19.50
1103;DHT22;538;42.654;23.376;2023-02-21T05:35:17;5.30;19.90
1103;DHT22;538;42.654;23.376;2023-02-21T05:37:46;5.40;19.40
1103;DHT22;538;42.654;23.376;2023-02-21T05:40:14;5.30;19.10
1103;DHT22;538;42.654;23.376;2023-02-21T05:42:42;5.50;19.50
1103;DHT22;538;42.654;23.376;2023-02-21T05:45:09;5.40;19.30
1103;DHT22;538;42.654;23.376;2023-02-21T05:47:37;5.50;19.30
1103;DHT22;538;42.654;23.376;2023-02-21T05:50:05;5.60;19.20
1103;DHT22;538;42.654;23.376;2023-02-21T05:52:32;5.60;18.90
1103;DHT22;538;42.654;23.376;2023-02-21T05:55:00;5.70;19.20
1103;DHT22;538;42.654;23.376;2023-02-21T05:57:27;5.60;18.90
1103;DHT22;538;42.654;23.376;2023-02-21T05:59:54;5.60;18.70
1103;DHT22;538;42.654;23.376;2023-02-21T06:02:21;5.70;18.30
1103;DHT22;538;42.654;23.376;2023-02-21T06:04:48;5.80;18.70
1103;DHT22;538;42.654;23.376;2023-02-21T06:07:15;5.80;19.20
1103;DHT22;538;42.654;23.376;2023-02-21T06:09:47;5.90;18.70
1103;DHT22;538;42.654;23.376;2023-02-21T06:12:16;6.00;18.40
1103;DHT22;538;42.654;23.376;2023-02-21T06:14:43;6.20;17.50
1103;DHT22;538;42.654;23.376;2023-02-21T06:17:12;6.20;17.90
1103;DHT22;538;42.654;23.376;2023-02-21T06:19:40;6.30;17.10
1103;DHT22;538;42.654;23.376;2023-02-21T06:22:11;6.30;17.50
1103;DHT22;538;42.654;23.376;2023-02-21T06:24:42;6.40;17.40
1103;DHT22;538;42.654;23.376;2023-02-21T06:27:09;6.40;17.30
1103;DHT22;538;42.654;23.376;2023-02-21T06:29:41;6.50;17.00
1103;DHT22;538;42.654;23.376;2023-02-21T06:32:08;6.50;16.80
1103;DHT22;538;42.654;23.376;2023-02-21T06:34:36;6.60;16.40
1103;DHT22;538;42.654;23.376;2023-02-21T06:37:03;6.60;16.10
1103;DHT22;538;42.654;23.376;2023-02-21T06:39:33;6.70;16.10
1103;DHT22;538;42.654;23.376;2023-02-21T06:42:00;6.90;15.50
1103;DHT22;538;42.654;23.376;2023-02-21T06:44:26;6.90;15.30
1103;DHT22;538;42.654;23.376;2023-02-21T06:46:55;6.90;15.60
1103;DHT22;538;42.654;23.376;2023-02-21T06:49:22;7.00;15.60
1103;DHT22;538;42.654;23.376;2023-02-21T06:51:49;7.00;15.50
1103;DHT22;538;42.654;23.376;2023-02-21T06:54:16;7.00;15.50
1103;DHT22;538;42.654;23.376;2023-02-21T06:56:43;7.00;15.50
1103;DHT22;538;42.654;23.376;2023-02-21T06:59:10;7.10;15.80
1103;DHT22;538;42.654;23.376;2023-02-21T07:01:37;7.10;15.10
1103;DHT22;538;42.654;23.376;2023-02-21T07:04:06;7.30;15.20
1103;DHT22;538;42.654;23.376;2023-02-21T07:06:33;7.40;15.00
1103;DHT22;538;42.654;23.376;2023-02-21T07:09:00;7.60;14.90
1103;DHT22;538;42.654;23.376;2023-02-21T07:11:27;7.70;14.40
1103;DHT22;538;42.654;23.376;2023-02-21T07:13:59;7.90;14.20
1103;DHT22;538;42.654;23.376;2023-02-21T07:16:31;8.20;13.40
1103;DHT22;538;42.654;23.376;2023-02-21T07:18:58;8.20;13.70
1103;DHT22;538;42.654;23.376;2023-02-21T07:21:27;8.40;13.30
1103;DHT22;538;42.654;23.376;2023-02-21T07:23:54;8.50;13.20
1103;DHT22;538;42.654;23.376;2023-02-21T07:26:21;8.60;12.70
1103;DHT22;538;42.654;23.376;2023-02-21T07:28:59;8.80;11.80
1103;DHT22;538;42.654;23.376;2023-02-21T07:31:26;8.90;11.50
1103;DHT22;538;42.654;23.376;2023-02-21T07:33:53;9.00;12.00
1103;DHT22;538;42.654;23.376;2023-02-21T07:36:20;9.00;11.80
1103;DHT22;538;42.654;23.376;2023-02-21T07:38:49;9.10;11.70
1103;DHT22;538;42.654;23.376;2023-02-21T07:41:16;9.30;11.70
1103;DHT22;538;42.654;23.376;2023-02-21T07:43:43;9.30;11.30
1103;DHT22;538;42.654;23.376;2023-02-21T07:46:11;9.40;11.00
1103;DHT22;538;42.654;23.376;2023-02-21T07:48:38;9.50;11.10
1103;DHT22;538;42.654;23.376;2023-02-21T07:51:06;9.50;11.10
1103;DHT22;538;42.654;23.376;2023-02-21T07:53:38;9.60;11.00
1103;DHT22;538;42.654;23.376;2023-02-21T07:56:12;9.80;11.10
1103;DHT22;538;42.654;23.376;2023-02-21T07:58:39;9.90;11.10
1103;DHT22;538;42.654;23.376;2023-02-21T08:01:07;9.90;10.80
1103;DHT22;538;42.654;23.376;2023-02-21T08:03:34;10.00;9.70
1103;DHT22;538;42.654;23.376;2023-02-21T08:06:11;10.10;9.70
1103;DHT22;538;42.654;23.376;2023-02-21T08:08:40;10.00;9.70
1103;DHT22;538;42.654;23.376;2023-02-21T08:11:07;10.10;9.30
1103;DHT22;538;42.654;23.376;2023-02-21T08:13:36;10.10;9.40
1103;DHT22;538;42.654;23.376;2023-02-21T08:16:03;10.30;9.20
1103;DHT22;538;42.654;23.376;2023-02-21T08:18:34;10.30;8.10
1103;DHT22;538;42.654;23.376;2023-02-21T08:21:01;10.40;8.50
1103;DHT22;538;42.654;23.376;2023-02-21T08:23:29;10.40;8.60
1103;DHT22;538;42.654;23.376;2023-02-21T08:25:56;10.40;8.40
1103;DHT22;538;42.654;23.376;2023-02-21T08:28:23;10.50;8.30
1103;DHT22;538;42.654;23.376;2023-02-21T08:30:51;10.50;8.10
1103;DHT22;538;42.654;23.376;2023-02-21T08:33:18;10.60;8.10
1103;DHT22;538;42.654;23.376;2023-02-21T08:35:45;10.70;8.00
1103;DHT22;538;42.654;23.376;2023-02-21T08:38:13;10.70;8.00
1103;DHT22;538;42.654;23.376;2023-02-21T08:40:40;10.90;8.10
1103;DHT22;538;42.654;23.376;2023-02-21T08:43:07;11.00;7.70
1103;DHT22;538;42.654;23.376;2023-02-21T08:45:40;11.30;7.50
1103;DHT22;538;42.654;23.376;2023-02-21T08:48:08;11.60;7.50
1103;DHT22;538;42.654;23.376;2023-02-21T08:50:35;11.80;7.30
1103;DHT22;538;42.654;23.376;2023-02-21T08:53:04;12.00;7.00
1103;DHT22;538;42.654;23.376;2023-02-21T08:55:31;12.20;6.10
1103;DHT22;538;42.654;23.376;2023-02-21T08:57:59;12.30;6.20
1103;DHT22;538;42.654;23.376;2023-02-21T09:00:26;12.50;6.30
1103;DHT22;538;42.654;23.376;2023-02-21T09:02:54;12.70;6.00
1103;DHT22;538;42.654;23.376;2023-02-21T09:05:25;13.00;5.70
1103;DHT22;538;42.654;23.376;2023-02-21T09:07:53;13.30;5.10
1103;DHT22;538;42.654;23.376;2023-02-21T09:10:24;13.50;4.90
1103;DHT22;538;42.654;23.376;2023-02-21T09:12:51;13.60;4.30
1103;DHT22;538;42.654;23.376;2023-02-21T09:15:19;13.90;4.30
1103;DHT22;538;42.654;23.376;2023-02-21T09:17:46;14.00;4.30
1103;DHT22;538;42.654;23.376;2023-02-21T09:20:16;14.10;4.10
1103;DHT22;538;42.654;23.376;2023-02-21T09:22:45;14.30;3.60
1103;DHT22;538;42.654;23.376;2023-02-21T09:25:17;14.40;3.50
1103;DHT22;538;42.654;23.376;2023-02-21T09:27:45;14.60;3.20
1103;DHT22;538;42.654;23.376;2023-02-21T09:30:14;14.70;2.60
1103;DHT22;538;42.654;23.376;2023-02-21T09:32:41;14.90;2.80
1103;DHT22;538;42.654;23.376;2023-02-21T09:35:08;15.20;2.10
1103;DHT22;538;42.654;23.376;2023-02-21T09:37:38;15.40;2.10
1103;DHT22;538;42.654;23.376;2023-02-21T09:40:14;15.80;2.00
1103;DHT22;538;42.654;23.376;2023-02-21T09:42:41;16.30;1.60
1103;DHT22;538;42.654;23.376;2023-02-21T09:45:13;16.70;1.00
1103;DHT22;538;42.654;23.376;2023-02-21T09:47:43;17.20;1.00
1103;DHT22;538;42.654;23.376;2023-02-21T09:50:13;17.70;1.00
1103;DHT22;538;42.654;23.376;2023-02-21T09:52:42;18.10;1.00
1103;DHT22;538;42.654;23.376;2023-02-21T09:55:22;18.50;1.00
1103;DHT22;538;42.654;23.376;2023-02-21T09:57:54;18.90;1.00
1103;DHT22;538;42.654;23.376;2023-02-21T10:00:25;19.10;1.00
1103;DHT22;538;42.654;23.376;2023-02-21T10:02:58;19.30;1.00
1103;DHT22;538;42.654;23.376;2023-02-21T10:05:50;19.60;1.00
1103;DHT22;538;42.654;23.376;2023-02-21T10:08:25;19.90;1.00
1103;DHT22;538;42.654;23.376;2023-02-21T10:10:59;20.20;1.00
1103;DHT22;538;42.654;23.376;2023-02-21T10:13:35;20.50;1.00
1103;DHT22;538;42.654;23.376;2023-02-21T10:16:10;20.90;1.00
1103;DHT22;538;42.654;23.376;2023-02-21T10:18:41;21.20;1.00
1103;DHT22;538;42.654;23.376;2023-02-21T10:21:16;21.60;1.00
1103;DHT22;538;42.654;23.376;2023-02-21T10:23:49;22.10;1.00
1103;DHT22;538;42.654;23.376;2023-02-21T10:26:24;22.50;1.00
1103;DHT22;538;42.654;23.376;2023-02-21T10:28:52;22.90;1.00
1103;DHT22;538;42.654;23.376;2023-02-21T10:31:23;22.90;1.00
1103;DHT22;538;42.654;23.376;2023-02-21T10:33:51;22.80;1.00
1103;DHT22;538;42.654;23.376;2023-02-21T10:36:20;22.70;1.00
1103;DHT22;538;42.654;23.376;2023-02-21T10:38:54;22.70;1.00
1103;DHT22;538;42.654;23.376;2023-02-21T10:41:26;23.00;1.00
1103;DHT22;538;42.654;23.376;2023-02-21T10:44:00;23.20;1.00
1103;DHT22;538;42.654;23.376;2023-02-21T10:46:32;23.70;1.00
1103;DHT22;538;42.654;23.376;2023-02-21T10:49:16;24.10;1.00
1103;DHT22;538;42.654;23.376;2023-02-21T10:51:46;24.60;1.00
1103;DHT22;538;42.654;23.376;2023-02-21T10:54:18;24.90;1.00
1103;DHT22;538;42.654;23.376;2023-02-21T10:56:48;25.20;1.00
1103;DHT22;538;42.654;23.376;2023-02-21T10:59:21;25.50;1.00
1103;DHT22;538;42.654;23.376;2023-02-21T11:01:49;25.90;1.00
1103;DHT22;538;42.654;23.376;2023-02-21T11:04:25;26.50;1.00
1103;DHT22;538;42.654;23.376;2023-02-21T11:06:55;26.60;1.00
1103;DHT22;538;42.654;23.376;2023-02-21T11:09:29;26.50;1.00
1103;DHT22;538;42.654;23.376;2023-02-21T11:12:05;26.50;1.00
1103;DHT22;538;42.654;23.376;2023-02-21T11:14:33;26.40;1.00
1103;DHT22;538;42.654;23.376;2023-02-21T11:17:12;26.30;1.00
1103;DHT22;538;42.654;23.376;2023-02-21T11:19:48;26.10;1.00
1103;DHT22;538;42.654;23.376;2023-02-21T11:22:17;25.90;1.00
1103;DHT22;538;42.654;23.376;2023-02-21T11:24:58;25.80;1.00
1103;DHT22;538;42.654;23.376;2023-02-21T11:27:30;25.80;1.00
1103;DHT22;538;42.654;23.376;2023-02-21T11:29:59;25.90;1.00
1103;DHT22;538;42.654;23.376;2023-02-21T11:32:31;25.70;1.00
1103;DHT22;538;42.654;23.376;2023-02-21T11:35:05;25.40;1.00
1103;DHT22;538;42.654;23.376;2023-02-21T11:37:32;25.40;1.00
1103;DHT22;538;42.654;23.376;2023-02-21T11:39:59;25.60;1.00
1103;DHT22;538;42.654;23.376;2023-02-21T11:42:30;25.70;1.00
1103;DHT22;538;42.654;23.376;2023-02-21T11:45:12;26.10;1.00
1103;DHT22;538;42.654;23.376;2023-02-21T11:47:45;26.60;1.00
1103;DHT22;538;42.654;23.376;2023-02-21T11:50:20;26.80;1.00
1103;DHT22;538;42.654;23.376;2023-02-21T11:52:50;26.50;1.00
1103;DHT22;538;42.654;23.376;2023-02-21T11:55:20;26.50;1.00
1103;DHT22;538;42.654;23.376;2023-02-21T11:57:56;26.70;1.00
1103;DHT22;538;42.654;23.376;2023-02-21T12:00:29;27.00;1.00
1103;DHT22;538;42.654;23.376;2023-02-21T12:03:24;27.20;1.00
1103;DHT22;538;42.654;23.376;2023-02-21T12:05:58;27.40;1.00
1103;DHT22;538;42.654;23.376;2023-02-21T12:08:43;27.10;1.00
1103;DHT22;538;42.654;23.376;2023-02-21T12:14:36;26.70;1.00
1103;DHT22;538;42.654;23.376;2023-02-21T12:17:14;26.20;1.00
1103;DHT22;538;42.654;23.376;2023-02-21T12:20:02;26.20;1.00
1103;DHT22;538;42.654;23.376;2023-02-21T12:22:45;26.60;1.00
1103;DHT22;538;42.654;23.376;2023-02-21T12:25:19;27.20;1.00
1103;DHT22;538;42.654;23.376;2023-02-21T12:27:53;27.10;1.00
1103;DHT22;538;42.654;23.376;2023-02-21T12:30:36;26.90;1.00
1103;DHT22;538;42.654;23.376;2023-02-21T12:33:16;26.70;1.00
1103;DHT22;538;42.654;23.376;2023-02-21T12:36:01;26.20;1.00
1103;DHT22;538;42.654;23.376;2023-02-21T12:38:44;25.80;1.00
1103;DHT22;538;42.654;23.376;2023-02-21T12:41:27;25.70;1.00
1103;DHT22;538;42.654;23.376;2023-02-21T12:44:00;25.40;1.00
1103;DHT22;538;42.654;23.376;2023-02-21T12:46:35;25.30;1.00
1103;DHT22;538;42.654;23.376;2023-02-21T12:49:09;25.40;1.00
1103;DHT22;538;42.654;23.376;2023-02-21T12:51:42;25.70;1.00
1103;DHT22;538;42.654;23.376;2023-02-21T12:54:15;26.50;1.00
1103;DHT22;538;42.654;23.376;2023-02-21T12:56:47;27.30;1.00
1103;DHT22;538;42.654;23.376;2023-02-21T12:59:20;28.00;1.00
1103;DHT22;538;42.654;23.376;2023-02-21T13:01:55;28.30;1.00
1103;DHT22;538;42.654;23.376;2023-02-21T13:04:32;28.30;1.00
1103;DHT22;538;42.654;23.376;2023-02-21T13:07:04;28.30;1.00
1103;DHT22;538;42.654;23.376;2023-02-21T13:09:38;28.80;1.00
1103;DHT22;538;42.654;23.376;2023-02-21T13:12:10;29.40;1.00
1103;DHT22;538;42.654;23.376;2023-02-21T13:14:42;30.30;1.00
1103;DHT22;538;42.654;23.376;2023-02-21T13:17:13;31.30;1.00
1103;DHT22;538;42.654;23.376;2023-02-21T13:19:44;31.60;1.00
1103;DHT22;538;42.654;23.376;2023-02-21T13:25:44;32.50;1.00
1103;DHT22;538;42.654;23.376;2023-02-21T13:28:17;32.60;1.00
1103;DHT22;538;42.654;23.376;2023-02-21T13:30:51;32.30;1.00
1103;DHT22;538;42.654;23.376;2023-02-21T13:33:29;31.90;1.00
1103;DHT22;538;42.654;23.376;2023-02-21T13:36:17;31.30;1.00
1103;DHT22;538;42.654;23.376;2023-02-21T13:38:54;31.00;1.00
1103;DHT22;538;42.654;23.376;2023-02-21T13:41:26;31.40;1.00
1103;DHT22;538;42.654;23.376;2023-02-21T13:43:55;32.00;1.00
1103;DHT22;538;42.654;23.376;2023-02-21T13:46:57;31.90;1.00
1103;DHT22;538;42.654;23.376;2023-02-21T13:49:45;31.80;1.00
1103;DHT22;538;42.654;23.376;2023-02-21T13:52:26;32.50;1.00
1103;DHT22;538;42.654;23.376;2023-02-21T13:55:24;33.30;1.00
1103;DHT22;538;42.654;23.376;2023-02-21T13:58:29;33.80;1.00
1103;DHT22;538;42.654;23.376;2023-02-21T14:01:14;33.90;1.00
1103;DHT22;538;42.654;23.376;2023-02-21T14:03:42;34.00;1.00
1103;DHT22;538;42.654;23.376;2023-02-21T14:06:31;34.10;1.00
1103;DHT22;538;42.654;23.376;2023-02-21T14:09:03;34.00;1.00
1103;DHT22;538;42.654;23.376;2023-02-21T14:11:36;34.10;1.00
1103;DHT22;538;42.654;23.376;2023-02-21T14:14:05;34.10;1.00
1103;DHT22;538;42.654;23.376;2023-02-21T14:16:47;34.10;1.00
1103;DHT22;538;42.654;23.376;2023-02-21T14:19:19;34.00;1.00
1103;DHT22;538;42.654;23.376;2023-02-21T14:21:54;34.30;1.00
1103;DHT22;538;42.654;23.376;2023-02-21T14:24:24;34.20;1.00
1103;DHT22;538;42.654;23.376;2023-02-21T14:26:54;33.90;1.00
1103;DHT22;538;42.654;23.376;2023-02-21T14:29:31;33.80;1.00
1103;DHT22;538;42.654;23.376;2023-02-21T14:32:27;33.60;1.00
1103;DHT22;538;42.654;23.376;2023-02-21T14:34:58;33.30;1.00
1103;DHT22;538;42.654;23.376;2023-02-21T14:37:32;33.00;1.00
1103;DHT22;538;42.654;23.376;2023-02-21T14:40:07;32.70;1.00
1103;DHT22;538;42.654;23.376;2023-02-21T14:42:53;32.20;1.00
1103;DHT22;538;42.654;23.376;2023-02-21T14:45:50;32.20;1.00
1103;DHT22;538;42.654;23.376;2023-02-21T14:48:44;32.20;1.00
1103;DHT22;538;42.654;23.376;2023-02-21T14:51:43;31.90;1.00
1103;DHT22;538;42.654;23.376;2023-02-21T14:57:37;31.20;1.00
1103;DHT22;538;42.654;23.376;2023-02-21T15:00:17;30.70;1.00
1103;DHT22;538;42.654;23.376;2023-02-21T15:02:51;30.20;1.00
1103;DHT22;538;42.654;23.376;2023-02-21T15:05:24;29.80;1.00
1103;DHT22;538;42.654;23.376;2023-02-21T15:07:57;29.40;1.00
1103;DHT22;538;42.654;23.376;2023-02-21T15:10:26;29.00;1.00
1103;DHT22;538;42.654;23.376;2023-02-21T15:12:56;28.70;1.00
1103;DHT22;538;42.654;23.376;2023-02-21T15:15:26;28.60;1.00
1103;DHT22;538;42.654;23.376;2023-02-21T15:17:57;28.50;1.00
1103;DHT22;538;42.654;23.376;2023-02-21T15:20:25;28.20;1.00
1103;DHT22;538;42.654;23.376;2023-02-21T15:22:56;28.00;1.00
1103;DHT22;538;42.654;23.376;2023-02-21T15:25:23;27.80;1.00
1103;DHT22;538;42.654;23.376;2023-02-21T15:27:58;27.70;1.00
1103;DHT22;538;42.654;23.376;2023-02-21T15:30:27;27.30;1.00
1103;DHT22;538;42.654;23.376;2023-02-21T15:32:58;27.10;1.00
1103;DHT22;538;42.654;23.376;2023-02-21T15:35:30;26.70;1.00
1103;DHT22;538;42.654;23.376;2023-02-21T15:37:59;26.10;1.00
1103;DHT22;538;42.654;23.376;2023-02-21T15:40:28;25.10;1.00
1103;DHT22;538;42.654;23.376;2023-02-21T15:42:57;24.40;1.00
1103;DHT22;538;42.654;23.376;2023-02-21T15:45:27;23.60;1.00
1103;DHT22;538;42.654;23.376;2023-02-21T15:47:57;23.00;1.00
1103;DHT22;538;42.654;23.376;2023-02-21T15:50:30;22.90;1.00
1103;DHT22;538;42.654;23.376;2023-02-21T15:53:10;21.70;1.00
1103;DHT22;538;42.654;23.376;2023-02-21T15:55:38;21.70;1.00
1103;DHT22;538;42.654;23.376;2023-02-21T15:58:17;21.00;1.00
1103;DHT22;538;42.654;23.376;2023-02-21T16:00:46;20.60;1.00
1103;DHT22;538;42.654;23.376;2023-02-21T16:03:28;20.10;1.00
1103;DHT22;538;42.654;23.376;2023-02-21T16:06:18;19.80;1.00
1103;DHT22;538;42.654;23.376;2023-02-21T16:08:57;19.50;1.00
1103;DHT22;538;42.654;23.376;2023-02-21T16:11:37;19.20;1.00
1103;DHT22;538;42.654;23.376;2023-02-21T16:14:16;18.90;1.00
1103;DHT22;538;42.654;23.376;2023-02-21T16:16:45;18.60;1.00
1103;DHT22;538;42.654;23.376;2023-02-21T16:19:19;18.50;1.00
1103;DHT22;538;42.654;23.376;2023-02-21T16:21:46;18.50;1.00
1103;DHT22;538;42.654;23.376;2023-02-21T16:24:29;18.30;1.00
1103;DHT22;538;42.654;23.376;2023-02-21T16:27:05;18.10;1.00
1103;DHT22;538;42.654;23.376;2023-02-21T16:29:34;17.50;1.00
1103;DHT22;538;42.654;23.376;2023-02-21T16:32:01;17.80;1.00
1103;DHT22;538;42.654;23.376;2023-02-21T16:34:31;17.60;1.00
1103;DHT22;538;42.654;23.376;2023-02-21T16:37:03;17.40;1.00
1103;DHT22;538;42.654;23.376;2023-02-21T16:39:32;17.20;1.00
1103;DHT22;538;42.654;23.376;2023-02-21T16:41:59;16.90;1.00
1103;DHT22;538;42.654;23.376;2023-02-21T16:44:26;16.70;1.00
1103;DHT22;538;42.654;23.376;2023-02-21T16:46:54;16.50;1.00
1103;DHT22;538;42.654;23.376;2023-02-21T16:49:21;16.40;1.00
1103;DHT22;538;42.654;23.376;2023-02-21T16:51:49;16.30;1.00
1103;DHT22;538;42.654;23.376;2023-02-21T16:54:16;16.20;1.00
1103;DHT22;538;42.654;23.376;2023-02-21T16:56:46;16.10;1.00
1103;DHT22;538;42.654;23.376;2023-02-21T16:59:15;16.10;1.00
1103;DHT22;538;42.654;23.376;2023-02-21T17:01:45;16.00;1.00
1103;DHT22;538;42.654;23.376;2023-02-21T17:04:16;16.00;1.00
1103;DHT22;538;42.654;23.376;2023-02-21T17:06:46;15.90;1.00
1103;DHT22;538;42.654;23.376;2023-02-21T17:09:18;15.80;1.00
1103;DHT22;538;42.654;23.376;2023-02-21T17:11:45;15.70;1.00
1103;DHT22;538;42.654;23.376;2023-02-21T17:14:14;15.70;1.00
1103;DHT22;538;42.654;23.376;2023-02-21T17:16:41;15.70;1.00
1103;DHT22;538;42.654;23.376;2023-02-21T17:19:11;15.80;1.00
1103;DHT22;538;42.654;23.376;2023-02-21T17:21:40;15.90;1.00